createdAt,value
2022-09-23T00:00:44.102Z,7.84
2022-09-23T00:03:11.029Z,8.19
2022-09-23T00:05:38.484Z,7.82
2022-09-23T00:08:07.377Z,7.71
2022-09-23T00:10:37.626Z,7.57
2022-09-23T00:13:05.423Z,7.61
2022-09-23T00:15:32.456Z,7.78
2022-09-23T00:17:59.130Z,7.68
2022-09-23T00:20:25.883Z,7.59
2022-09-23T00:22:52.461Z,7.71
2022-09-23T00:25:19.159Z,7.46
2022-09-23T00:27:45.742Z,7.30
2022-09-23T00:30:12.420Z,7.24
2022-09-23T00:32:39.032Z,7.24
2022-09-23T00:35:06.034Z,7.40
2022-09-23T00:37:32.693Z,7.25
2022-09-23T00:39:59.267Z,7.11
2022-09-23T00:42:25.850Z,7.06
2022-09-23T00:44:55.317Z,7.06
2022-09-23T00:47:43.487Z,7.08
2022-09-23T00:50:19.126Z,7.19
2022-09-23T00:52:46.425Z,7.15
2022-09-23T00:55:18.140Z,7.24
2022-09-23T00:57:46.911Z,7.19
2022-09-23T01:00:14.172Z,7.39
2022-09-23T01:02:40.914Z,7.49
2022-09-23T01:05:08.347Z,7.43
2022-09-23T01:07:34.919Z,6.85
2022-09-23T01:10:03.546Z,6.87
2022-09-23T01:12:54.267Z,7.00
2022-09-23T01:15:53.247Z,6.91
2022-09-23T01:18:34.770Z,7.01
2022-09-23T01:21:19.851Z,7.10
2022-09-23T01:24:07.675Z,6.99
2022-09-23T01:26:43.449Z,7.09
2022-09-23T01:29:32.674Z,7.13
2022-09-23T01:32:07.817Z,7.24
2022-09-23T01:34:55.425Z,7.26
2022-09-23T01:37:39.591Z,7.45
2022-09-23T01:40:30.636Z,7.21
2022-09-23T01:43:06.428Z,7.19
2022-09-23T01:45:45.387Z,7.16
2022-09-23T01:48:20.886Z,7.07
2022-09-23T01:51:00.939Z,6.93
2022-09-23T01:53:39.197Z,6.88
2022-09-23T01:56:18.174Z,6.94
2022-09-23T01:59:18.469Z,6.91
2022-09-23T02:02:02.577Z,6.78
2022-09-23T02:04:46.062Z,6.61
2022-09-23T02:07:28.387Z,6.88
2022-09-23T02:10:25.333Z,6.95
2022-09-23T02:12:57.170Z,6.82
2022-09-23T02:15:29.209Z,6.56
2022-09-23T02:18:10.524Z,6.40
2022-09-23T02:20:38.720Z,6.58
2022-09-23T02:23:49.436Z,6.55
2022-09-23T02:26:28.532Z,6.83
2022-09-23T02:29:19.473Z,6.81
2022-09-23T02:32:13.263Z,6.51
2022-09-23T02:34:45.789Z,6.29
2022-09-23T02:37:25.668Z,6.41
2022-09-23T02:40:03.022Z,6.30
2022-09-23T02:43:04.389Z,6.44
2022-09-23T02:45:31.109Z,6.43
2022-09-23T02:48:04.747Z,6.70
2022-09-23T02:50:32.800Z,6.48
2022-09-23T02:53:00.862Z,6.53
2022-09-23T02:55:30.131Z,6.57
2022-09-23T02:57:58.474Z,6.49
2022-09-23T03:00:33.080Z,6.39
2022-09-23T03:03:15.706Z,6.33
2022-09-23T03:05:53.303Z,6.46
2022-09-23T03:08:38.471Z,6.51
2022-09-23T03:11:08.459Z,6.30
2022-09-23T03:14:29.007Z,6.30
2022-09-23T03:17:05.744Z,6.29
2022-09-23T03:19:36.646Z,6.12
2022-09-23T03:22:10.480Z,6.18
2022-09-23T03:24:40.033Z,6.26
2022-09-23T03:27:14.812Z,6.12
2022-09-23T03:29:45.670Z,6.02
2022-09-23T03:32:14.364Z,6.16
2022-09-23T03:34:44.503Z,6.04
2022-09-23T03:37:19.878Z,5.98
2022-09-23T03:39:58.274Z,6.18
2022-09-23T03:42:28.120Z,5.77
2022-09-23T03:44:56.341Z,5.65
2022-09-23T03:47:25.827Z,5.92
2022-09-23T03:49:53.564Z,5.93
2022-09-23T03:52:23.011Z,5.97
2022-09-23T03:54:50.522Z,6.05
2022-09-23T03:57:17.139Z,6.19
2022-09-23T03:59:43.949Z,6.29
2022-09-23T04:02:10.634Z,6.38
2022-09-23T04:04:38.618Z,6.26
2022-09-23T04:07:05.200Z,6.27
2022-09-23T04:09:31.941Z,6.21
2022-09-23T04:11:58.525Z,6.13
2022-09-23T04:14:25.260Z,6.17
2022-09-23T04:16:52.300Z,6.22
2022-09-23T04:19:19.002Z,6.10
2022-09-23T04:21:46.026Z,6.24
2022-09-23T04:24:13.300Z,6.17
2022-09-23T04:26:40.363Z,6.12
2022-09-23T04:29:07.246Z,6.18
2022-09-23T04:31:34.324Z,6.17
2022-09-23T04:34:00.996Z,6.10
2022-09-23T04:36:27.881Z,5.95
2022-09-23T04:38:54.635Z,6.07
2022-09-23T04:41:21.223Z,5.96
2022-09-23T04:43:47.927Z,6.10
2022-09-23T04:46:16.458Z,6.10
2022-09-23T04:48:43.180Z,6.09
2022-09-23T04:51:16.416Z,6.00
2022-09-23T04:53:45.383Z,6.05
2022-09-23T04:56:23.522Z,6.00
2022-09-23T04:58:50.526Z,5.97
2022-09-23T05:01:28.718Z,6.11
2022-09-23T05:03:58.145Z,6.20
2022-09-23T05:06:25.182Z,6.21
2022-09-23T05:08:54.108Z,6.04
2022-09-23T05:11:21.372Z,6.10
2022-09-23T05:13:49.041Z,6.09
2022-09-23T05:16:16.537Z,5.95
2022-09-23T05:18:44.928Z,6.13
2022-09-23T05:21:16.970Z,6.00
2022-09-23T05:23:53.895Z,6.02
2022-09-23T05:26:22.378Z,6.14
2022-09-23T05:28:48.981Z,5.95
2022-09-23T05:31:20.378Z,5.93
2022-09-23T05:33:53.096Z,6.00
2022-09-23T05:36:21.466Z,5.99
2022-09-23T05:38:49.701Z,6.27
2022-09-23T05:41:17.880Z,6.15
2022-09-23T05:43:45.120Z,6.19
2022-09-23T05:46:19.966Z,6.19
2022-09-23T05:48:47.255Z,6.16
2022-09-23T05:51:22.412Z,6.11
2022-09-23T05:53:51.059Z,6.07
2022-09-23T05:56:20.388Z,6.06
2022-09-23T05:58:52.164Z,6.05
2022-09-23T06:01:21.546Z,5.95
2022-09-23T06:03:48.933Z,5.98
2022-09-23T06:06:17.883Z,6.03
2022-09-23T06:08:45.750Z,5.96
2022-09-23T06:11:12.547Z,5.99
2022-09-23T06:13:40.274Z,6.07
2022-09-23T06:16:12.029Z,6.36
2022-09-23T06:18:44.233Z,6.54
2022-09-23T06:21:14.320Z,6.48
2022-09-23T06:23:42.001Z,6.45
2022-09-23T06:26:10.905Z,6.58
2022-09-23T06:28:39.256Z,6.62
2022-09-23T06:31:13.541Z,7.10
2022-09-23T06:33:41.399Z,7.08
2022-09-23T06:36:08.951Z,7.29
2022-09-23T06:38:39.288Z,7.16
2022-09-23T06:41:06.043Z,7.28
2022-09-23T06:43:32.701Z,7.33
2022-09-23T06:46:00.913Z,7.35
2022-09-23T06:48:28.697Z,7.49
2022-09-23T06:50:59.260Z,7.41
2022-09-23T06:53:25.860Z,7.72
2022-09-23T06:56:00.186Z,7.81
2022-09-23T06:58:27.299Z,7.97
2022-09-23T07:00:54.336Z,7.81
2022-09-23T07:03:20.927Z,7.94
2022-09-23T07:05:47.586Z,8.18
2022-09-23T07:08:14.210Z,8.37
2022-09-23T07:10:40.780Z,8.22
2022-09-23T07:13:07.357Z,8.49
2022-09-23T07:15:34.004Z,8.23
2022-09-23T07:18:00.598Z,8.35
2022-09-23T07:20:27.157Z,8.49
2022-09-23T07:22:53.762Z,8.46
2022-09-23T07:25:20.408Z,8.45
2022-09-23T07:27:46.974Z,8.57
2022-09-23T07:30:23.984Z,8.64
2022-09-23T07:32:51.879Z,8.77
2022-09-23T07:35:19.064Z,9.21
2022-09-23T07:37:45.645Z,9.12
2022-09-23T07:40:12.492Z,9.52
2022-09-23T07:42:39.102Z,9.33
2022-09-23T07:45:06.868Z,9.21
2022-09-23T07:47:33.534Z,9.80
2022-09-23T07:50:00.166Z,10.02
2022-09-23T07:52:26.865Z,10.45
2022-09-23T07:54:53.470Z,10.76
2022-09-23T07:57:20.038Z,10.97
2022-09-23T07:59:46.633Z,10.71
2022-09-23T08:02:13.292Z,11.38
2022-09-23T08:04:40.071Z,11.34
2022-09-23T08:07:06.652Z,11.25
2022-09-23T08:09:37.372Z,11.08
2022-09-23T08:12:04.191Z,10.95
2022-09-23T08:14:30.920Z,11.17
2022-09-23T08:16:57.572Z,11.38
2022-09-23T08:19:24.237Z,11.85
2022-09-23T08:21:50.802Z,11.83
2022-09-23T08:24:19.941Z,11.88
2022-09-23T08:26:47.923Z,12.08
2022-09-23T08:29:16.475Z,12.29
2022-09-23T08:31:43.593Z,12.12
2022-09-23T08:34:11.131Z,12.09
2022-09-23T08:36:37.782Z,12.24
2022-09-23T08:39:05.370Z,12.53
2022-09-23T08:41:46.194Z,12.86
2022-09-23T08:44:26.060Z,12.50
2022-09-23T08:47:03.687Z,12.76
2022-09-23T08:49:39.802Z,12.78
2022-09-23T08:52:14.506Z,13.01
2022-09-23T08:54:41.652Z,13.06
2022-09-23T08:57:39.164Z,13.05
2022-09-23T09:00:06.315Z,13.35
2022-09-23T09:02:35.486Z,13.20
2022-09-23T09:05:07.447Z,13.51
2022-09-23T09:07:37.685Z,13.41
2022-09-23T09:10:11.740Z,13.55
2022-09-23T09:12:44.154Z,13.30
2022-09-23T09:15:18.509Z,13.29
2022-09-23T09:18:01.719Z,13.40
2022-09-23T09:20:31.406Z,13.35
2022-09-23T09:22:59.857Z,13.53
2022-09-23T09:25:45.338Z,13.71
2022-09-23T09:28:28.533Z,13.69
2022-09-23T09:30:58.090Z,13.71
2022-09-23T09:33:31.754Z,13.64
2022-09-23T09:36:11.886Z,13.67
2022-09-23T09:38:38.481Z,13.47
2022-09-23T09:41:15.362Z,12.81
2022-09-23T09:43:45.384Z,13.23
2022-09-23T09:46:34.670Z,13.85
2022-09-23T09:49:22.924Z,13.57
2022-09-23T09:52:20.405Z,13.84
2022-09-23T09:54:47.081Z,14.30
2022-09-23T09:57:26.334Z,13.76
2022-09-23T09:59:53.235Z,13.83
2022-09-23T10:02:30.393Z,14.17
2022-09-23T10:05:01.533Z,13.88
2022-09-23T10:07:31.480Z,13.94
2022-09-23T10:10:01.902Z,13.84
2022-09-23T10:12:47.557Z,13.88
2022-09-23T10:15:32.429Z,14.03
2022-09-23T10:18:00.097Z,13.85
2022-09-23T10:20:32.995Z,13.73
2022-09-23T10:23:06.904Z,13.64
2022-09-23T10:25:35.070Z,14.06
2022-09-23T10:28:36.991Z,13.95
2022-09-23T10:31:28.452Z,14.10
2022-09-23T10:34:01.166Z,14.15
2022-09-23T10:36:29.664Z,14.22
2022-09-23T10:39:02.372Z,14.15
2022-09-23T10:41:42.188Z,14.74
2022-09-23T10:44:15.159Z,15.01
2022-09-23T10:46:59.052Z,14.79
2022-09-23T10:49:37.548Z,14.69
2022-09-23T10:52:20.424Z,15.12
2022-09-23T10:55:06.963Z,15.10
2022-09-23T10:57:45.735Z,14.77
2022-09-23T11:00:38.180Z,14.72
2022-09-23T11:03:20.455Z,14.40
2022-09-23T11:06:02.256Z,15.07
2022-09-23T11:09:05.961Z,14.95
2022-09-23T11:11:57.163Z,14.86
2022-09-23T11:14:57.576Z,14.59
2022-09-23T11:17:46.837Z,14.59
2022-09-23T11:20:25.297Z,14.81
2022-09-23T11:23:26.032Z,15.28
2022-09-23T11:26:32.853Z,14.89
2022-09-23T11:29:18.248Z,14.90
2022-09-23T11:32:03.283Z,15.18
2022-09-23T11:34:52.569Z,15.19
2022-09-23T11:37:27.713Z,14.68
2022-09-23T11:40:37.550Z,14.48
2022-09-23T11:43:16.002Z,14.75
2022-09-23T11:45:49.372Z,15.20
2022-09-23T11:48:32.980Z,14.64
2022-09-23T11:51:12.446Z,14.98
2022-09-23T11:53:42.234Z,15.21
2022-09-23T11:56:34.172Z,15.37
2022-09-23T11:59:36.130Z,15.30
2022-09-23T12:02:20.860Z,15.74
2022-09-23T12:05:12.198Z,16.18
2022-09-23T12:08:05.487Z,16.05
2022-09-23T12:10:59.842Z,16.09
2022-09-23T12:13:50.651Z,16.00
2022-09-23T12:16:35.916Z,15.81
2022-09-23T12:19:16.427Z,15.00
2022-09-23T12:22:17.144Z,15.29
2022-09-23T12:24:51.470Z,15.36
2022-09-23T12:27:39.404Z,15.88
2022-09-23T12:30:20.618Z,16.05
2022-09-23T12:32:47.621Z,16.43
2022-09-23T12:35:27.167Z,16.00
2022-09-23T12:37:54.482Z,15.95
2022-09-23T12:40:28.758Z,15.11
2022-09-23T12:42:55.815Z,14.97
2022-09-23T12:45:28.252Z,15.60
2022-09-23T12:47:59.127Z,15.93
2022-09-23T12:51:04.803Z,15.44
2022-09-23T12:53:34.272Z,15.62
2022-09-23T12:56:14.639Z,15.37
2022-09-23T12:58:44.374Z,15.53
2022-09-23T13:01:25.725Z,15.93
2022-09-23T13:03:58.085Z,15.83
2022-09-23T13:06:38.847Z,16.16
2022-09-23T13:09:17.766Z,15.86
2022-09-23T13:11:46.152Z,15.90
2022-09-23T13:14:17.268Z,15.98
2022-09-23T13:16:45.305Z,15.15
2022-09-23T13:19:27.296Z,15.58
2022-09-23T13:21:53.812Z,15.46
2022-09-23T13:24:23.129Z,15.43
2022-09-23T13:26:55.335Z,15.74
2022-09-23T13:29:38.632Z,15.81
2022-09-23T13:32:05.267Z,15.64
2022-09-23T13:34:36.660Z,16.07
2022-09-23T13:37:31.295Z,16.39
2022-09-23T13:40:23.275Z,16.58
2022-09-23T13:43:17.454Z,16.79
2022-09-23T13:45:44.173Z,16.70
2022-09-23T13:48:15.741Z,16.36
2022-09-23T13:50:49.043Z,16.65
2022-09-23T13:53:24.264Z,17.00
2022-09-23T13:56:11.992Z,15.57
2022-09-23T13:58:39.101Z,15.80
2022-09-23T14:01:32.751Z,15.76
2022-09-23T14:04:00.553Z,16.08
2022-09-23T14:06:30.931Z,15.41
2022-09-23T14:09:00.796Z,15.09
2022-09-23T14:11:33.272Z,15.12
2022-09-23T14:14:01.933Z,14.72
2022-09-23T14:16:29.801Z,15.34
2022-09-23T14:18:58.871Z,15.48
2022-09-23T14:21:36.157Z,15.29
2022-09-23T14:24:23.801Z,15.40
2022-09-23T14:26:55.803Z,15.60
2022-09-23T14:29:33.506Z,15.40
2022-09-23T14:32:13.864Z,15.47
2022-09-23T14:34:50.524Z,15.52
2022-09-23T14:37:32.516Z,16.15
2022-09-23T14:39:59.119Z,16.39
2022-09-23T14:42:25.749Z,16.35
2022-09-23T14:44:52.357Z,15.30
2022-09-23T14:47:19.112Z,15.74
2022-09-23T14:49:50.504Z,15.64
2022-09-23T14:52:17.276Z,15.50
2022-09-23T14:54:45.431Z,15.38
2022-09-23T14:57:28.513Z,15.42
2022-09-23T15:00:07.003Z,15.63
2022-09-23T15:02:38.536Z,15.71
2022-09-23T15:05:07.903Z,16.00
2022-09-23T15:07:37.177Z,16.18
2022-09-23T15:10:07.647Z,15.79
2022-09-23T15:12:36.431Z,15.65
2022-09-23T15:15:03.177Z,15.88
2022-09-23T15:17:34.023Z,15.61
2022-09-23T15:20:07.090Z,15.42
2022-09-23T15:22:43.998Z,15.25
2022-09-23T15:25:34.698Z,15.05
2022-09-23T15:28:18.293Z,15.07
2022-09-23T15:30:45.428Z,15.48
2022-09-23T15:33:13.605Z,15.80
2022-09-23T15:35:45.777Z,16.38
2022-09-23T15:38:12.473Z,16.41
2022-09-23T15:40:42.104Z,16.95
2022-09-23T15:43:20.535Z,17.08
2022-09-23T15:45:59.329Z,17.06
2022-09-23T15:48:29.661Z,17.02
2022-09-23T15:50:56.253Z,17.08
2022-09-23T15:53:27.555Z,16.87
2022-09-23T15:55:54.237Z,16.98
2022-09-23T15:58:22.352Z,16.95
2022-09-23T16:00:55.711Z,16.64
2022-09-23T16:03:24.927Z,16.74
2022-09-23T16:05:51.721Z,16.74
2022-09-23T16:08:18.308Z,16.79
2022-09-23T16:10:44.903Z,16.50
2022-09-23T16:13:14.006Z,16.70
2022-09-23T16:15:41.460Z,16.24
2022-09-23T16:18:09.719Z,15.91
2022-09-23T16:20:39.350Z,15.83
2022-09-23T16:23:09.067Z,15.91
2022-09-23T16:25:35.895Z,15.76
2022-09-23T16:28:04.359Z,15.64
2022-09-23T16:30:33.167Z,15.27
2022-09-23T16:32:59.769Z,15.22
2022-09-23T16:35:28.333Z,15.15
2022-09-23T16:37:55.148Z,15.11
2022-09-23T16:40:24.442Z,14.90
2022-09-23T16:42:52.574Z,14.88
2022-09-23T16:45:20.972Z,14.86
2022-09-23T16:47:49.557Z,14.79
2022-09-23T16:50:19.224Z,14.69
2022-09-23T16:52:45.902Z,14.77
2022-09-23T16:55:13.743Z,14.52
2022-09-23T16:57:41.580Z,14.36
2022-09-23T17:00:14.978Z,14.15
2022-09-23T17:02:41.584Z,14.31
2022-09-23T17:05:08.472Z,14.25
2022-09-23T17:07:35.047Z,14.23
2022-09-23T17:10:01.658Z,13.97
2022-09-23T17:12:33.099Z,14.10
2022-09-23T17:14:59.695Z,13.92
2022-09-23T17:17:26.317Z,13.72
2022-09-23T17:19:52.923Z,13.79
2022-09-23T17:22:19.498Z,13.42
2022-09-23T17:24:46.120Z,13.78
2022-09-23T17:27:12.689Z,13.44
2022-09-23T17:29:39.249Z,13.33
2022-09-23T17:32:05.868Z,13.32
2022-09-23T17:34:32.524Z,13.43
2022-09-23T17:36:59.096Z,13.20
2022-09-23T17:39:25.756Z,13.27
2022-09-23T17:41:52.321Z,13.63
2022-09-23T17:44:18.896Z,13.37
2022-09-23T17:46:45.485Z,13.15
2022-09-23T17:49:12.056Z,12.97
2022-09-23T17:51:38.643Z,12.97
2022-09-23T17:54:05.352Z,12.90
2022-09-23T17:56:31.916Z,13.34
2022-09-23T17:59:02.517Z,13.14
2022-09-23T18:01:29.256Z,12.75
2022-09-23T18:04:01.080Z,12.54
2022-09-23T18:06:30.144Z,12.72
2022-09-23T18:08:58.684Z,12.61
2022-09-23T18:11:28.135Z,12.38
2022-09-23T18:13:54.648Z,12.49
2022-09-23T18:16:24.529Z,12.56
2022-09-23T18:18:58.789Z,12.47
2022-09-23T18:21:28.688Z,12.46
2022-09-23T18:23:59.752Z,12.55
2022-09-23T18:26:33.701Z,12.53
2022-09-23T18:29:01.243Z,12.59
2022-09-23T18:31:32.406Z,12.42
2022-09-23T18:33:59.020Z,12.35
2022-09-23T18:36:25.625Z,12.30
2022-09-23T18:38:52.237Z,12.29
2022-09-23T18:41:19.275Z,12.29
2022-09-23T18:43:48.661Z,12.19
2022-09-23T18:46:18.163Z,12.15
2022-09-23T18:48:44.918Z,12.08
2022-09-23T18:51:13.554Z,11.98
2022-09-23T18:53:40.641Z,11.92
2022-09-23T18:56:11.039Z,11.89
2022-09-23T18:58:37.934Z,11.74
2022-09-23T19:01:09.465Z,11.73
2022-09-23T19:03:37.303Z,11.65
2022-09-23T19:06:12.647Z,11.57
2022-09-23T19:08:39.601Z,11.53
2022-09-23T19:11:08.676Z,11.37
2022-09-23T19:13:35.719Z,11.15
2022-09-23T19:16:03.645Z,11.20
2022-09-23T19:18:31.389Z,10.95
2022-09-23T19:20:58.379Z,10.94
2022-09-23T19:23:29.794Z,10.67
2022-09-23T19:25:56.393Z,10.87
2022-09-23T19:28:22.976Z,10.71
2022-09-23T19:30:49.561Z,10.86
2022-09-23T19:33:16.232Z,10.62
2022-09-23T19:35:47.378Z,10.75
2022-09-23T19:38:15.564Z,10.66
2022-09-23T19:40:44.542Z,10.57
2022-09-23T19:43:13.182Z,10.53
2022-09-23T19:45:40.255Z,10.55
2022-09-23T19:48:06.863Z,10.43
2022-09-23T19:50:37.664Z,10.40
2022-09-23T19:53:05.847Z,10.33
2022-09-23T19:55:35.298Z,10.27
2022-09-23T19:58:02.691Z,10.41
2022-09-23T20:00:29.408Z,10.32
2022-09-23T20:02:56.521Z,10.37
2022-09-23T20:05:24.295Z,10.40
2022-09-23T20:07:50.875Z,10.23
2022-09-23T20:10:17.512Z,10.22
2022-09-23T20:12:44.227Z,10.26
2022-09-23T20:15:11.611Z,10.24
2022-09-23T20:17:38.769Z,10.13
2022-09-23T20:20:06.056Z,10.13
2022-09-23T20:22:33.600Z,10.17
2022-09-23T20:25:01.029Z,10.17
2022-09-23T20:27:28.588Z,10.14
2022-09-23T20:29:55.167Z,10.15
2022-09-23T20:32:21.771Z,10.07
2022-09-23T20:34:48.340Z,9.96
2022-09-23T20:37:16.512Z,9.96
2022-09-23T20:39:47.435Z,9.91
2022-09-23T20:42:14.971Z,9.96
2022-09-23T20:44:41.747Z,9.86
2022-09-23T20:47:08.417Z,9.97
2022-09-23T20:49:35.044Z,9.81
2022-09-23T20:52:01.781Z,9.85
2022-09-23T20:54:29.360Z,9.74
2022-09-23T20:56:55.912Z,9.73
2022-09-23T20:59:22.530Z,9.66
2022-09-23T21:01:49.209Z,9.50
2022-09-23T21:04:15.898Z,9.61
2022-09-23T21:06:42.568Z,9.52
2022-09-23T21:09:09.157Z,9.42
2022-09-23T21:11:35.766Z,9.51
2022-09-23T21:14:02.457Z,9.49
2022-09-23T21:16:30.022Z,9.39
2022-09-23T21:18:58.012Z,9.23
2022-09-23T21:21:24.716Z,9.22
2022-09-23T21:23:51.550Z,9.03
2022-09-23T21:26:21.054Z,9.11
2022-09-23T21:28:50.079Z,9.32
2022-09-23T21:31:22.183Z,9.35
2022-09-23T21:33:55.344Z,9.20
2022-09-23T21:36:22.758Z,9.19
2022-09-23T21:38:49.545Z,9.23
2022-09-23T21:41:16.613Z,9.20
2022-09-23T21:43:43.699Z,9.17
2022-09-23T21:46:15.264Z,9.03
2022-09-23T21:48:42.672Z,8.95
2022-09-23T21:51:16.512Z,8.94
2022-09-23T21:53:44.043Z,8.84
2022-09-23T21:56:20.526Z,8.71
2022-09-23T21:58:48.372Z,8.80
2022-09-23T22:01:21.134Z,8.76
2022-09-23T22:03:56.343Z,8.83
2022-09-23T22:06:25.457Z,8.90
2022-09-23T22:08:57.880Z,8.91
2022-09-23T22:11:27.248Z,8.88
2022-09-23T22:13:53.822Z,8.83
2022-09-23T22:16:20.461Z,8.84
2022-09-23T22:18:47.118Z,8.80
2022-09-23T22:21:13.784Z,8.77
2022-09-23T22:23:40.431Z,8.77
2022-09-23T22:26:07.021Z,8.56
2022-09-23T22:28:33.606Z,8.50
2022-09-23T22:31:00.339Z,8.31
2022-09-23T22:33:26.956Z,8.39
2022-09-23T22:36:02.738Z,8.41
2022-09-23T22:38:29.465Z,8.53
2022-09-23T22:40:56.111Z,8.41
2022-09-23T22:43:22.792Z,8.48
2022-09-23T22:45:50.380Z,8.39
2022-09-23T22:48:17.489Z,8.42
2022-09-23T22:50:44.084Z,8.60
2022-09-23T22:53:10.738Z,8.50
2022-09-23T22:55:37.324Z,8.39
2022-09-23T22:58:21.547Z,8.21
2022-09-23T23:00:51.231Z,8.00
2022-09-23T23:03:17.927Z,7.98
2022-09-23T23:05:44.520Z,8.18
2022-09-23T23:08:11.152Z,8.21
2022-09-23T23:10:37.748Z,8.18
2022-09-23T23:13:04.311Z,8.06
2022-09-23T23:15:30.982Z,7.85
2022-09-23T23:17:57.543Z,7.73
2022-09-23T23:20:24.124Z,7.67
2022-09-23T23:22:50.711Z,7.56
2022-09-23T23:25:17.338Z,7.66
2022-09-23T23:27:44.096Z,7.75
2022-09-23T23:30:11.115Z,7.75
2022-09-23T23:32:37.697Z,7.90
2022-09-23T23:35:04.720Z,7.86
2022-09-23T23:37:31.288Z,7.80
2022-09-23T23:39:57.887Z,7.70
2022-09-23T23:42:24.482Z,7.62
2022-09-23T23:44:51.062Z,7.48
2022-09-23T23:47:17.655Z,7.40
2022-09-23T23:49:44.238Z,7.32
2022-09-23T23:52:10.836Z,7.25
2022-09-23T23:54:38.532Z,7.25
2022-09-23T23:57:05.094Z,7.27
2022-09-23T23:59:31.693Z,7.36
